sensor_id;sensor_type;location;lat;lon;timestamp;temperature;humidity
31765;DHT22;18338;53.240;8.798;2022-10-16T00:01:21;12.00;99.90
31765;DHT22;18338;53.240;8.798;2022-10-16T00:03:48;11.90;99.90
31765;DHT22;18338;53.240;8.798;2022-10-16T00:06:17;11.90;99.90
31765;DHT22;18338;53.240;8.798;2022-10-16T00:08:45;11.90;99.90
31765;DHT22;18338;53.240;8.798;2022-10-16T00:11:18;11.90;99.90
31765;DHT22;18338;53.240;8.798;2022-10-16T00:13:47;11.80;99.90
31765;DHT22;18338;53.240;8.798;2022-10-16T00:16:15;11.80;99.90
31765;DHT22;18338;53.240;8.798;2022-10-16T00:18:43;11.70;99.90
31765;DHT22;18338;53.240;8.798;2022-10-16T00:21:18;11.70;99.90
31765;DHT22;18338;53.240;8.798;2022-10-16T00:23:45;11.70;99.90
31765;DHT22;18338;53.240;8.798;2022-10-16T00:26:15;11.70;99.90
31765;DHT22;18338;53.240;8.798;2022-10-16T00:28:42;11.60;99.90
31765;DHT22;18338;53.240;8.798;2022-10-16T00:31:11;11.60;99.90
31765;DHT22;18338;53.240;8.798;2022-10-16T00:33:39;11.50;99.90
31765;DHT22;18338;53.240;8.798;2022-10-16T00:36:09;11.50;99.90
31765;DHT22;18338;53.240;8.798;2022-10-16T00:38:36;11.50;99.90
31765;DHT22;18338;53.240;8.798;2022-10-16T00:41:05;11.40;99.90
31765;DHT22;18338;53.240;8.798;2022-10-16T00:43:48;11.50;99.90
31765;DHT22;18338;53.240;8.798;2022-10-16T00:46:20;11.50;99.90
31765;DHT22;18338;53.240;8.798;2022-10-16T00:49:05;11.40;99.90
31765;DHT22;18338;53.240;8.798;2022-10-16T00:51:38;11.30;99.90
31765;DHT22;18338;53.240;8.798;2022-10-16T00:54:14;11.20;99.90
31765;DHT22;18338;53.240;8.798;2022-10-16T00:56:43;11.20;99.90
31765;DHT22;18338;53.240;8.798;2022-10-16T00:59:19;11.10;99.90
31765;DHT22;18338;53.240;8.798;2022-10-16T01:01:46;11.10;99.90
31765;DHT22;18338;53.240;8.798;2022-10-16T01:04:13;11.10;99.90
31765;DHT22;18338;53.240;8.798;2022-10-16T01:06:49;11.00;99.90
31765;DHT22;18338;53.240;8.798;2022-10-16T01:12:50;10.90;99.90
31765;DHT22;18338;53.240;8.798;2022-10-16T01:15:44;11.00;99.90
31765;DHT22;18338;53.240;8.798;2022-10-16T01:18:18;11.00;99.90
31765;DHT22;18338;53.240;8.798;2022-10-16T01:21:26;11.10;99.90
31765;DHT22;18338;53.240;8.798;2022-10-16T01:29:34;10.80;99.90
31765;DHT22;18338;53.240;8.798;2022-10-16T01:32:12;10.70;99.90
31765;DHT22;18338;53.240;8.798;2022-10-16T01:35:09;10.60;99.90
31765;DHT22;18338;53.240;8.798;2022-10-16T01:37:42;10.60;99.90
31765;DHT22;18338;53.240;8.798;2022-10-16T01:40:13;10.50;99.90
31765;DHT22;18338;53.240;8.798;2022-10-16T01:42:52;10.50;99.90
31765;DHT22;18338;53.240;8.798;2022-10-16T01:45:20;10.60;99.90
31765;DHT22;18338;53.240;8.798;2022-10-16T01:47:49;10.60;99.90
31765;DHT22;18338;53.240;8.798;2022-10-16T01:50:18;10.70;99.90
31765;DHT22;18338;53.240;8.798;2022-10-16T01:52:49;10.70;99.90
31765;DHT22;18338;53.240;8.798;2022-10-16T01:55:28;10.80;99.90
31765;DHT22;18338;53.240;8.798;2022-10-16T01:57:57;10.70;99.90
31765;DHT22;18338;53.240;8.798;2022-10-16T02:00:25;10.70;99.90
31765;DHT22;18338;53.240;8.798;2022-10-16T02:02:54;10.70;99.90
31765;DHT22;18338;53.240;8.798;2022-10-16T02:05:47;10.60;99.90
31765;DHT22;18338;53.240;8.798;2022-10-16T02:08:12;10.50;99.90
31765;DHT22;18338;53.240;8.798;2022-10-16T02:10:39;10.50;99.90
31765;DHT22;18338;53.240;8.798;2022-10-16T02:13:18;10.50;99.90
31765;DHT22;18338;53.240;8.798;2022-10-16T02:15:48;10.40;99.90
31765;DHT22;18338;53.240;8.798;2022-10-16T02:18:15;10.40;99.90
31765;DHT22;18338;53.240;8.798;2022-10-16T02:20:53;10.40;99.90
31765;DHT22;18338;53.240;8.798;2022-10-16T02:23:29;10.40;99.90
31765;DHT22;18338;53.240;8.798;2022-10-16T02:26:03;10.50;99.90
31765;DHT22;18338;53.240;8.798;2022-10-16T02:28:45;10.50;99.90
31765;DHT22;18338;53.240;8.798;2022-10-16T02:31:18;10.50;99.90
31765;DHT22;18338;53.240;8.798;2022-10-16T02:33:47;10.50;99.90
31765;DHT22;18338;53.240;8.798;2022-10-16T02:36:15;10.50;99.90
31765;DHT22;18338;53.240;8.798;2022-10-16T02:38:42;10.40;99.90
31765;DHT22;18338;53.240;8.798;2022-10-16T02:41:09;10.40;99.90
31765;DHT22;18338;53.240;8.798;2022-10-16T02:43:37;10.50;99.90
31765;DHT22;18338;53.240;8.798;2022-10-16T02:46:03;10.50;99.90
31765;DHT22;18338;53.240;8.798;2022-10-16T02:48:30;10.50;99.90
31765;DHT22;18338;53.240;8.798;2022-10-16T02:50:57;10.50;99.90
31765;DHT22;18338;53.240;8.798;2022-10-16T02:53:24;10.50;99.90
31765;DHT22;18338;53.240;8.798;2022-10-16T02:55:51;10.50;99.90
31765;DHT22;18338;53.240;8.798;2022-10-16T02:58:17;10.50;99.90
31765;DHT22;18338;53.240;8.798;2022-10-16T03:00:44;10.50;99.90
31765;DHT22;18338;53.240;8.798;2022-10-16T03:03:11;10.60;99.90
31765;DHT22;18338;53.240;8.798;2022-10-16T03:05:38;10.60;99.90
31765;DHT22;18338;53.240;8.798;2022-10-16T03:08:04;10.70;99.90
31765;DHT22;18338;53.240;8.798;2022-10-16T03:10:31;10.70;99.90
31765;DHT22;18338;53.240;8.798;2022-10-16T03:12:58;10.70;99.90
31765;DHT22;18338;53.240;8.798;2022-10-16T03:15:25;10.70;99.90
31765;DHT22;18338;53.240;8.798;2022-10-16T03:17:52;10.70;99.90
31765;DHT22;18338;53.240;8.798;2022-10-16T03:20:19;10.70;99.90
31765;DHT22;18338;53.240;8.798;2022-10-16T03:22:45;10.70;99.90
31765;DHT22;18338;53.240;8.798;2022-10-16T03:25:12;10.70;99.90
31765;DHT22;18338;53.240;8.798;2022-10-16T03:27:39;10.70;99.90
31765;DHT22;18338;53.240;8.798;2022-10-16T03:30:06;10.70;99.90
31765;DHT22;18338;53.240;8.798;2022-10-16T03:32:33;10.80;99.90
31765;DHT22;18338;53.240;8.798;2022-10-16T03:35:01;10.80;99.90
31765;DHT22;18338;53.240;8.798;2022-10-16T03:37:28;10.80;99.90
31765;DHT22;18338;53.240;8.798;2022-10-16T03:39:55;10.90;99.90
31765;DHT22;18338;53.240;8.798;2022-10-16T03:42:22;10.90;99.90
31765;DHT22;18338;53.240;8.798;2022-10-16T03:44:49;10.90;99.90
31765;DHT22;18338;53.240;8.798;2022-10-16T03:47:15;10.90;99.90
31765;DHT22;18338;53.240;8.798;2022-10-16T03:49:47;10.90;99.90
31765;DHT22;18338;53.240;8.798;2022-10-16T03:52:14;10.90;99.90
31765;DHT22;18338;53.240;8.798;2022-10-16T03:54:41;10.80;99.90
31765;DHT22;18338;53.240;8.798;2022-10-16T03:57:08;10.70;99.90
31765;DHT22;18338;53.240;8.798;2022-10-16T03:59:35;10.70;99.90
31765;DHT22;18338;53.240;8.798;2022-10-16T04:02:01;10.60;99.90
31765;DHT22;18338;53.240;8.798;2022-10-16T04:04:28;10.50;99.90
31765;DHT22;18338;53.240;8.798;2022-10-16T04:06:55;10.50;99.90
31765;DHT22;18338;53.240;8.798;2022-10-16T04:09:22;10.40;99.90
31765;DHT22;18338;53.240;8.798;2022-10-16T04:11:48;10.50;99.90
31765;DHT22;18338;53.240;8.798;2022-10-16T04:14:15;10.40;99.90
31765;DHT22;18338;53.240;8.798;2022-10-16T04:16:42;10.40;99.90
31765;DHT22;18338;53.240;8.798;2022-10-16T04:19:10;10.40;99.90
31765;DHT22;18338;53.240;8.798;2022-10-16T04:21:37;10.50;99.90
31765;DHT22;18338;53.240;8.798;2022-10-16T04:24:04;10.50;99.90
31765;DHT22;18338;53.240;8.798;2022-10-16T04:26:31;10.50;99.90
31765;DHT22;18338;53.240;8.798;2022-10-16T04:28:58;10.60;99.90
31765;DHT22;18338;53.240;8.798;2022-10-16T04:31:25;10.60;99.90
31765;DHT22;18338;53.240;8.798;2022-10-16T04:33:51;10.60;99.90
31765;DHT22;18338;53.240;8.798;2022-10-16T04:36:18;10.60;99.90
31765;DHT22;18338;53.240;8.798;2022-10-16T04:38:45;10.60;99.90
31765;DHT22;18338;53.240;8.798;2022-10-16T04:41:11;10.60;99.90
31765;DHT22;18338;53.240;8.798;2022-10-16T04:43:38;10.60;99.90
31765;DHT22;18338;53.240;8.798;2022-10-16T04:46:05;10.50;99.90
31765;DHT22;18338;53.240;8.798;2022-10-16T04:48:32;10.50;99.90
31765;DHT22;18338;53.240;8.798;2022-10-16T04:50:59;10.50;99.90
31765;DHT22;18338;53.240;8.798;2022-10-16T04:53:26;10.60;99.90
31765;DHT22;18338;53.240;8.798;2022-10-16T04:55:52;10.60;99.90
31765;DHT22;18338;53.240;8.798;2022-10-16T04:58:19;10.60;99.90
31765;DHT22;18338;53.240;8.798;2022-10-16T05:00:46;10.60;99.90
31765;DHT22;18338;53.240;8.798;2022-10-16T05:03:13;10.70;99.90
31765;DHT22;18338;53.240;8.798;2022-10-16T05:05:46;10.70;99.90
31765;DHT22;18338;53.240;8.798;2022-10-16T05:08:14;10.70;99.90
31765;DHT22;18338;53.240;8.798;2022-10-16T05:10:43;10.80;99.90
31765;DHT22;18338;53.240;8.798;2022-10-16T05:13:10;10.80;99.90
31765;DHT22;18338;53.240;8.798;2022-10-16T05:15:37;10.90;99.90
31765;DHT22;18338;53.240;8.798;2022-10-16T05:18:04;11.00;99.90
31765;DHT22;18338;53.240;8.798;2022-10-16T05:20:31;10.90;99.90
31765;DHT22;18338;53.240;8.798;2022-10-16T05:22:58;11.00;99.90
31765;DHT22;18338;53.240;8.798;2022-10-16T05:25:25;11.10;99.90
31765;DHT22;18338;53.240;8.798;2022-10-16T05:27:52;11.10;99.90
31765;DHT22;18338;53.240;8.798;2022-10-16T05:30:19;11.20;99.90
31765;DHT22;18338;53.240;8.798;2022-10-16T05:32:48;11.20;99.90
31765;DHT22;18338;53.240;8.798;2022-10-16T05:35:16;11.20;99.90
31765;DHT22;18338;53.240;8.798;2022-10-16T05:37:43;11.20;99.90
31765;DHT22;18338;53.240;8.798;2022-10-16T05:40:10;11.20;99.90
31765;DHT22;18338;53.240;8.798;2022-10-16T05:42:37;11.10;99.90
31765;DHT22;18338;53.240;8.798;2022-10-16T05:45:05;11.00;99.90
31765;DHT22;18338;53.240;8.798;2022-10-16T05:47:32;11.00;99.90
31765;DHT22;18338;53.240;8.798;2022-10-16T05:49:59;11.00;99.90
31765;DHT22;18338;53.240;8.798;2022-10-16T05:52:26;11.00;99.90
31765;DHT22;18338;53.240;8.798;2022-10-16T05:54:53;11.00;99.90
31765;DHT22;18338;53.240;8.798;2022-10-16T05:57:20;11.00;99.90
31765;DHT22;18338;53.240;8.798;2022-10-16T05:59:47;11.00;99.90
31765;DHT22;18338;53.240;8.798;2022-10-16T06:02:14;11.00;99.90
31765;DHT22;18338;53.240;8.798;2022-10-16T06:04:41;11.10;99.90
31765;DHT22;18338;53.240;8.798;2022-10-16T06:07:08;11.20;99.90
31765;DHT22;18338;53.240;8.798;2022-10-16T06:09:35;11.30;99.90
31765;DHT22;18338;53.240;8.798;2022-10-16T06:12:02;11.40;99.90
31765;DHT22;18338;53.240;8.798;2022-10-16T06:14:29;11.40;99.90
31765;DHT22;18338;53.240;8.798;2022-10-16T06:16:55;11.50;99.90
31765;DHT22;18338;53.240;8.798;2022-10-16T06:19:22;11.50;99.90
31765;DHT22;18338;53.240;8.798;2022-10-16T06:21:49;11.60;99.90
31765;DHT22;18338;53.240;8.798;2022-10-16T06:24:16;11.70;99.90
31765;DHT22;18338;53.240;8.798;2022-10-16T06:26:43;11.80;99.90
31765;DHT22;18338;53.240;8.798;2022-10-16T06:29:09;11.80;99.90
31765;DHT22;18338;53.240;8.798;2022-10-16T06:31:36;11.80;99.90
31765;DHT22;18338;53.240;8.798;2022-10-16T06:34:03;11.90;99.90
31765;DHT22;18338;53.240;8.798;2022-10-16T06:36:32;11.80;99.90
31765;DHT22;18338;53.240;8.798;2022-10-16T06:38:59;11.80;99.90
31765;DHT22;18338;53.240;8.798;2022-10-16T06:41:25;11.80;99.90
31765;DHT22;18338;53.240;8.798;2022-10-16T06:43:52;11.90;99.90
31765;DHT22;18338;53.240;8.798;2022-10-16T06:46:21;12.00;99.90
31765;DHT22;18338;53.240;8.798;2022-10-16T06:48:48;12.10;99.90
31765;DHT22;18338;53.240;8.798;2022-10-16T06:51:17;12.10;99.90
31765;DHT22;18338;53.240;8.798;2022-10-16T06:53:46;12.10;99.90
31765;DHT22;18338;53.240;8.798;2022-10-16T06:56:29;12.20;99.90
31765;DHT22;18338;53.240;8.798;2022-10-16T06:58:58;12.30;99.90
31765;DHT22;18338;53.240;8.798;2022-10-16T07:01:25;12.40;99.90
31765;DHT22;18338;53.240;8.798;2022-10-16T07:03:52;12.40;99.90
31765;DHT22;18338;53.240;8.798;2022-10-16T07:06:21;12.40;99.90
31765;DHT22;18338;53.240;8.798;2022-10-16T07:08:51;12.40;99.90
31765;DHT22;18338;53.240;8.798;2022-10-16T07:11:20;12.40;99.90
31765;DHT22;18338;53.240;8.798;2022-10-16T07:13:49;12.50;99.90
31765;DHT22;18338;53.240;8.798;2022-10-16T07:16:24;12.70;99.90
31765;DHT22;18338;53.240;8.798;2022-10-16T07:18:51;12.80;99.90
31765;DHT22;18338;53.240;8.798;2022-10-16T07:21:25;12.70;99.90
31765;DHT22;18338;53.240;8.798;2022-10-16T07:23:54;12.70;99.90
31765;DHT22;18338;53.240;8.798;2022-10-16T07:26:22;12.80;99.90
31765;DHT22;18338;53.240;8.798;2022-10-16T07:28:49;12.80;99.90
31765;DHT22;18338;53.240;8.798;2022-10-16T07:31:17;12.90;99.90
31765;DHT22;18338;53.240;8.798;2022-10-16T07:33:45;12.90;99.90
31765;DHT22;18338;53.240;8.798;2022-10-16T07:36:15;12.90;99.90
31765;DHT22;18338;53.240;8.798;2022-10-16T07:38:43;13.00;99.90
31765;DHT22;18338;53.240;8.798;2022-10-16T07:41:13;13.00;99.90
31765;DHT22;18338;53.240;8.798;2022-10-16T07:43:40;13.00;99.90
31765;DHT22;18338;53.240;8.798;2022-10-16T07:46:11;13.20;99.90
31765;DHT22;18338;53.240;8.798;2022-10-16T07:48:38;13.40;99.90
31765;DHT22;18338;53.240;8.798;2022-10-16T07:51:06;13.60;99.90
31765;DHT22;18338;53.240;8.798;2022-10-16T07:53:33;13.90;99.90
31765;DHT22;18338;53.240;8.798;2022-10-16T07:56:05;14.00;99.90
31765;DHT22;18338;53.240;8.798;2022-10-16T07:58:33;14.20;99.90
31765;DHT22;18338;53.240;8.798;2022-10-16T08:01:04;14.40;99.90
31765;DHT22;18338;53.240;8.798;2022-10-16T08:03:31;14.60;99.90
31765;DHT22;18338;53.240;8.798;2022-10-16T08:05:59;14.70;99.90
31765;DHT22;18338;53.240;8.798;2022-10-16T08:08:27;14.80;99.90
31765;DHT22;18338;53.240;8.798;2022-10-16T08:10:54;14.90;99.90
31765;DHT22;18338;53.240;8.798;2022-10-16T08:13:21;14.90;99.90
31765;DHT22;18338;53.240;8.798;2022-10-16T08:15:47;14.80;99.90
31765;DHT22;18338;53.240;8.798;2022-10-16T08:18:15;14.70;99.90
31765;DHT22;18338;53.240;8.798;2022-10-16T08:20:42;14.70;99.90
31765;DHT22;18338;53.240;8.798;2022-10-16T08:23:12;14.70;99.90
31765;DHT22;18338;53.240;8.798;2022-10-16T08:25:40;14.80;99.90
31765;DHT22;18338;53.240;8.798;2022-10-16T08:28:10;14.70;99.90
31765;DHT22;18338;53.240;8.798;2022-10-16T08:30:37;14.70;99.90
31765;DHT22;18338;53.240;8.798;2022-10-16T08:33:06;14.80;99.90
31765;DHT22;18338;53.240;8.798;2022-10-16T08:35:33;15.10;99.90
31765;DHT22;18338;53.240;8.798;2022-10-16T08:38:03;16.40;99.90
31765;DHT22;18338;53.240;8.798;2022-10-16T08:40:32;18.00;99.90
31765;DHT22;18338;53.240;8.798;2022-10-16T08:43:17;19.40;99.90
31765;DHT22;18338;53.240;8.798;2022-10-16T08:48:30;18.10;99.90
31765;DHT22;18338;53.240;8.798;2022-10-16T08:51:02;19.70;99.90
31765;DHT22;18338;53.240;8.798;2022-10-16T08:53:59;20.70;99.90
31765;DHT22;18338;53.240;8.798;2022-10-16T08:56:28;21.70;99.90
31765;DHT22;18338;53.240;8.798;2022-10-16T08:58:55;21.20;99.90
31765;DHT22;18338;53.240;8.798;2022-10-16T09:01:44;21.00;99.90
31765;DHT22;18338;53.240;8.798;2022-10-16T09:07:20;22.60;99.90
31765;DHT22;18338;53.240;8.798;2022-10-16T09:12:58;24.80;99.90
31765;DHT22;18338;53.240;8.798;2022-10-16T09:15:34;23.50;99.90
31765;DHT22;18338;53.240;8.798;2022-10-16T09:23:28;21.00;99.90
31765;DHT22;18338;53.240;8.798;2022-10-16T09:25:58;21.60;99.90
31765;DHT22;18338;53.240;8.798;2022-10-16T09:28:25;21.40;99.90
31765;DHT22;18338;53.240;8.798;2022-10-16T09:30:53;20.00;99.90
31765;DHT22;18338;53.240;8.798;2022-10-16T09:33:23;19.50;99.90
31765;DHT22;18338;53.240;8.798;2022-10-16T09:35:53;18.70;99.90
31765;DHT22;18338;53.240;8.798;2022-10-16T09:38:32;19.00;99.90
31765;DHT22;18338;53.240;8.798;2022-10-16T09:41:19;19.50;99.90
31765;DHT22;18338;53.240;8.798;2022-10-16T09:43:55;19.60;99.90
31765;DHT22;18338;53.240;8.798;2022-10-16T09:48:56;20.20;99.90
31765;DHT22;18338;53.240;8.798;2022-10-16T09:51:29;20.50;99.90
31765;DHT22;18338;53.240;8.798;2022-10-16T09:54:02;19.50;99.90
31765;DHT22;18338;53.240;8.798;2022-10-16T09:56:38;19.50;99.90
31765;DHT22;18338;53.240;8.798;2022-10-16T09:59:17;21.40;99.90
31765;DHT22;18338;53.240;8.798;2022-10-16T10:01:49;22.30;99.90
31765;DHT22;18338;53.240;8.798;2022-10-16T10:04:23;21.70;99.90
31765;DHT22;18338;53.240;8.798;2022-10-16T10:06:52;23.10;99.90
31765;DHT22;18338;53.240;8.798;2022-10-16T10:09:27;24.40;99.90
31765;DHT22;18338;53.240;8.798;2022-10-16T10:12:01;24.20;99.90
31765;DHT22;18338;53.240;8.798;2022-10-16T10:14:44;24.20;99.90
31765;DHT22;18338;53.240;8.798;2022-10-16T10:17:21;24.90;99.90
31765;DHT22;18338;53.240;8.798;2022-10-16T10:19:57;25.40;99.90
31765;DHT22;18338;53.240;8.798;2022-10-16T10:38:53;24.60;99.90
31765;DHT22;18338;53.240;8.798;2022-10-16T10:47:30;25.20;99.90
31765;DHT22;18338;53.240;8.798;2022-10-16T10:53:02;25.10;99.90
31765;DHT22;18338;53.240;8.798;2022-10-16T11:06:46;25.90;97.90
31765;DHT22;18338;53.240;8.798;2022-10-16T11:09:35;24.70;99.50
31765;DHT22;18338;53.240;8.798;2022-10-16T11:12:14;24.40;99.20
31765;DHT22;18338;53.240;8.798;2022-10-16T11:17:59;24.20;98.80
31765;DHT22;18338;53.240;8.798;2022-10-16T11:20:37;23.20;99.90
31765;DHT22;18338;53.240;8.798;2022-10-16T11:25:43;23.00;99.90
31765;DHT22;18338;53.240;8.798;2022-10-16T11:34:12;26.80;95.80
31765;DHT22;18338;53.240;8.798;2022-10-16T11:36:57;25.10;96.90
31765;DHT22;18338;53.240;8.798;2022-10-16T11:39:29;23.80;99.90
31765;DHT22;18338;53.240;8.798;2022-10-16T11:42:12;23.80;99.30
31765;DHT22;18338;53.240;8.798;2022-10-16T11:47:58;22.40;99.90
31765;DHT22;18338;53.240;8.798;2022-10-16T11:53:03;25.80;99.00
31765;DHT22;18338;53.240;8.798;2022-10-16T11:55:35;26.30;95.90
31765;DHT22;18338;53.240;8.798;2022-10-16T12:01:03;24.60;96.90
31765;DHT22;18338;53.240;8.798;2022-10-16T12:08:45;22.40;99.90
31765;DHT22;18338;53.240;8.798;2022-10-16T12:11:31;21.50;99.90
31765;DHT22;18338;53.240;8.798;2022-10-16T12:16:50;20.30;99.90
31765;DHT22;18338;53.240;8.798;2022-10-16T12:19:19;20.90;99.90
31765;DHT22;18338;53.240;8.798;2022-10-16T12:21:46;22.40;99.90
31765;DHT22;18338;53.240;8.798;2022-10-16T12:24:22;22.00;99.90
31765;DHT22;18338;53.240;8.798;2022-10-16T12:26:54;21.20;99.90
31765;DHT22;18338;53.240;8.798;2022-10-16T12:31:54;21.50;99.90
31765;DHT22;18338;53.240;8.798;2022-10-16T12:34:37;22.80;99.70
31765;DHT22;18338;53.240;8.798;2022-10-16T12:37:20;24.10;96.70
31765;DHT22;18338;53.240;8.798;2022-10-16T12:39:48;25.00;95.40
31765;DHT22;18338;53.240;8.798;2022-10-16T12:44:55;24.50;94.20
31765;DHT22;18338;53.240;8.798;2022-10-16T12:49:58;21.00;99.90
31765;DHT22;18338;53.240;8.798;2022-10-16T12:55:01;20.00;99.90
31765;DHT22;18338;53.240;8.798;2022-10-16T13:00:28;19.70;99.90
31765;DHT22;18338;53.240;8.798;2022-10-16T13:03:27;19.70;99.90
31765;DHT22;18338;53.240;8.798;2022-10-16T13:08:57;20.00;99.90
31765;DHT22;18338;53.240;8.798;2022-10-16T13:19:46;22.60;99.90
31765;DHT22;18338;53.240;8.798;2022-10-16T13:22:24;24.20;96.80
31765;DHT22;18338;53.240;8.798;2022-10-16T13:27:59;26.00;92.00
31765;DHT22;18338;53.240;8.798;2022-10-16T13:30:39;26.20;91.10
31765;DHT22;18338;53.240;8.798;2022-10-16T13:35:55;25.70;90.90
31765;DHT22;18338;53.240;8.798;2022-10-16T13:38:25;25.60;90.70
31765;DHT22;18338;53.240;8.798;2022-10-16T13:43:42;25.60;91.50
31765;DHT22;18338;53.240;8.798;2022-10-16T13:48:44;26.00;91.10
31765;DHT22;18338;53.240;8.798;2022-10-16T13:51:17;26.70;89.90
31765;DHT22;18338;53.240;8.798;2022-10-16T13:53:45;26.00;89.40
31765;DHT22;18338;53.240;8.798;2022-10-16T13:56:14;24.30;90.50
31765;DHT22;18338;53.240;8.798;2022-10-16T13:58:42;24.30;91.90
31765;DHT22;18338;53.240;8.798;2022-10-16T14:01:18;24.50;91.60
31765;DHT22;18338;53.240;8.798;2022-10-16T14:03:47;24.70;91.20
31765;DHT22;18338;53.240;8.798;2022-10-16T14:06:17;24.60;91.30
31765;DHT22;18338;53.240;8.798;2022-10-16T14:08:48;23.50;92.20
31765;DHT22;18338;53.240;8.798;2022-10-16T14:11:23;23.60;93.20
31765;DHT22;18338;53.240;8.798;2022-10-16T14:13:51;23.70;92.60
31765;DHT22;18338;53.240;8.798;2022-10-16T14:16:20;24.50;92.40
31765;DHT22;18338;53.240;8.798;2022-10-16T14:21:23;24.60;91.00
31765;DHT22;18338;53.240;8.798;2022-10-16T14:23:50;24.50;91.50
31765;DHT22;18338;53.240;8.798;2022-10-16T14:26:20;24.60;91.20
31765;DHT22;18338;53.240;8.798;2022-10-16T14:28:49;24.20;91.90
31765;DHT22;18338;53.240;8.798;2022-10-16T14:31:33;24.00;93.10
31765;DHT22;18338;53.240;8.798;2022-10-16T14:34:01;23.90;92.70
31765;DHT22;18338;53.240;8.798;2022-10-16T14:36:28;23.30;93.80
31765;DHT22;18338;53.240;8.798;2022-10-16T14:39:02;22.30;95.00
31765;DHT22;18338;53.240;8.798;2022-10-16T14:41:30;21.40;97.60
31765;DHT22;18338;53.240;8.798;2022-10-16T14:44:02;21.30;98.20
31765;DHT22;18338;53.240;8.798;2022-10-16T14:46:33;21.70;98.70
31765;DHT22;18338;53.240;8.798;2022-10-16T14:51:40;23.00;97.00
31765;DHT22;18338;53.240;8.798;2022-10-16T14:54:17;23.20;96.60
31765;DHT22;18338;53.240;8.798;2022-10-16T14:59:59;24.20;94.20
31765;DHT22;18338;53.240;8.798;2022-10-16T15:04:47;24.10;93.70
31765;DHT22;18338;53.240;8.798;2022-10-16T15:07:14;23.30;94.80
31765;DHT22;18338;53.240;8.798;2022-10-16T15:09:41;23.10;95.00
31765;DHT22;18338;53.240;8.798;2022-10-16T15:12:15;22.40;96.20
31765;DHT22;18338;53.240;8.798;2022-10-16T15:14:42;21.90;97.30
31765;DHT22;18338;53.240;8.798;2022-10-16T15:17:10;21.50;98.00
31765;DHT22;18338;53.240;8.798;2022-10-16T15:19:37;21.90;97.90
31765;DHT22;18338;53.240;8.798;2022-10-16T15:22:04;21.90;98.20
31765;DHT22;18338;53.240;8.798;2022-10-16T15:24:31;21.60;98.40
31765;DHT22;18338;53.240;8.798;2022-10-16T15:26:57;21.50;98.90
31765;DHT22;18338;53.240;8.798;2022-10-16T15:29:25;21.20;99.60
31765;DHT22;18338;53.240;8.798;2022-10-16T15:31:52;20.60;99.90
31765;DHT22;18338;53.240;8.798;2022-10-16T15:34:18;20.20;99.90
31765;DHT22;18338;53.240;8.798;2022-10-16T15:36:46;19.60;99.90
31765;DHT22;18338;53.240;8.798;2022-10-16T15:39:15;19.10;99.90
31765;DHT22;18338;53.240;8.798;2022-10-16T15:41:43;18.50;99.90
31765;DHT22;18338;53.240;8.798;2022-10-16T15:44:10;18.00;99.90
31765;DHT22;18338;53.240;8.798;2022-10-16T15:46:37;17.60;99.90
31765;DHT22;18338;53.240;8.798;2022-10-16T15:49:04;17.30;99.90
31765;DHT22;18338;53.240;8.798;2022-10-16T15:51:31;17.00;99.90
31765;DHT22;18338;53.240;8.798;2022-10-16T15:54:00;16.80;99.90
31765;DHT22;18338;53.240;8.798;2022-10-16T15:56:28;16.50;99.90
31765;DHT22;18338;53.240;8.798;2022-10-16T15:58:55;16.40;99.90
31765;DHT22;18338;53.240;8.798;2022-10-16T16:01:23;16.20;99.90
31765;DHT22;18338;53.240;8.798;2022-10-16T16:03:54;16.10;99.90
31765;DHT22;18338;53.240;8.798;2022-10-16T16:06:21;15.90;99.90
31765;DHT22;18338;53.240;8.798;2022-10-16T16:08:51;15.70;99.90
31765;DHT22;18338;53.240;8.798;2022-10-16T16:11:19;15.60;99.90
31765;DHT22;18338;53.240;8.798;2022-10-16T16:13:46;15.40;99.90
31765;DHT22;18338;53.240;8.798;2022-10-16T16:16:17;15.30;99.90
31765;DHT22;18338;53.240;8.798;2022-10-16T16:18:47;15.20;99.90
31765;DHT22;18338;53.240;8.798;2022-10-16T16:21:16;15.00;99.90
31765;DHT22;18338;53.240;8.798;2022-10-16T16:23:42;14.90;99.90
31765;DHT22;18338;53.240;8.798;2022-10-16T16:26:11;14.70;99.90
31765;DHT22;18338;53.240;8.798;2022-10-16T16:28:39;14.50;99.90
31765;DHT22;18338;53.240;8.798;2022-10-16T16:31:06;14.40;99.90
31765;DHT22;18338;53.240;8.798;2022-10-16T16:33:33;14.30;99.90
31765;DHT22;18338;53.240;8.798;2022-10-16T16:36:02;14.10;99.90
31765;DHT22;18338;53.240;8.798;2022-10-16T16:38:31;14.00;99.90
31765;DHT22;18338;53.240;8.798;2022-10-16T16:40:58;13.90;99.90
31765;DHT22;18338;53.240;8.798;2022-10-16T16:43:26;13.80;99.90
31765;DHT22;18338;53.240;8.798;2022-10-16T16:45:54;13.60;99.90
31765;DHT22;18338;53.240;8.798;2022-10-16T16:48:21;13.40;99.90
31765;DHT22;18338;53.240;8.798;2022-10-16T16:50:48;13.30;99.90
31765;DHT22;18338;53.240;8.798;2022-10-16T16:53:15;13.20;99.90
31765;DHT22;18338;53.240;8.798;2022-10-16T16:55:42;13.10;99.90
31765;DHT22;18338;53.240;8.798;2022-10-16T16:58:09;13.10;99.90
31765;DHT22;18338;53.240;8.798;2022-10-16T17:00:36;12.90;99.90
31765;DHT22;18338;53.240;8.798;2022-10-16T17:03:03;12.70;99.90
31765;DHT22;18338;53.240;8.798;2022-10-16T17:05:29;12.60;99.90
31765;DHT22;18338;53.240;8.798;2022-10-16T17:07:56;12.50;99.90
31765;DHT22;18338;53.240;8.798;2022-10-16T17:10:23;12.40;99.90
31765;DHT22;18338;53.240;8.798;2022-10-16T17:12:50;12.30;99.90
31765;DHT22;18338;53.240;8.798;2022-10-16T17:15:16;12.20;99.90
31765;DHT22;18338;53.240;8.798;2022-10-16T17:17:43;12.10;99.90
31765;DHT22;18338;53.240;8.798;2022-10-16T17:20:10;12.10;99.90
31765;DHT22;18338;53.240;8.798;2022-10-16T17:22:37;12.20;99.90
31765;DHT22;18338;53.240;8.798;2022-10-16T17:25:04;12.10;99.90
31765;DHT22;18338;53.240;8.798;2022-10-16T17:27:34;12.00;99.90
31765;DHT22;18338;53.240;8.798;2022-10-16T17:30:03;11.90;99.90
31765;DHT22;18338;53.240;8.798;2022-10-16T17:32:30;11.80;99.90
31765;DHT22;18338;53.240;8.798;2022-10-16T17:34:57;11.80;99.90
31765;DHT22;18338;53.240;8.798;2022-10-16T17:37:24;11.70;99.90
31765;DHT22;18338;53.240;8.798;2022-10-16T17:39:51;11.60;99.90
31765;DHT22;18338;53.240;8.798;2022-10-16T17:42:18;11.60;99.90
31765;DHT22;18338;53.240;8.798;2022-10-16T17:44:45;11.50;99.90
31765;DHT22;18338;53.240;8.798;2022-10-16T17:47:12;11.40;99.90
31765;DHT22;18338;53.240;8.798;2022-10-16T17:49:38;11.40;99.90
31765;DHT22;18338;53.240;8.798;2022-10-16T17:52:05;11.30;99.90
31765;DHT22;18338;53.240;8.798;2022-10-16T17:54:33;11.30;99.90
31765;DHT22;18338;53.240;8.798;2022-10-16T17:57:00;11.20;99.90
31765;DHT22;18338;53.240;8.798;2022-10-16T17:59:27;11.10;99.90
31765;DHT22;18338;53.240;8.798;2022-10-16T18:01:54;11.00;99.90
31765;DHT22;18338;53.240;8.798;2022-10-16T18:04:21;11.00;99.90